Terminal Aerodrome Forecast
Issued by NWS

Home | Current Version | Previous Version | Graphics & Text | Print | Product List | Glossary On
Versions: 1 2 3 4 5 6 7 8 9 10 11 12 13 14 15
000
FTUS43 KMPX 131100
TAFRNH
TAF
KRNH 131122Z 1312/1412 00000KT 4SM BR SCT002
     FM131300 21005KT P6SM SKC
     FM131700 20010G16KT P6SM FEW050 SCT200
     FM140100 17006KT P6SM FEW200=

USA.gov is the U.S. government's official web portal to all federal, state and local government web resources and services.